createdAt,value
2018-01-01T00:01:01.958Z,237.60
2018-01-01T00:03:28.793Z,258.92
2018-01-01T00:05:55.626Z,270.70
2018-01-01T00:08:22.376Z,231.60
2018-01-01T00:10:49.122Z,218.68
2018-01-01T00:13:15.906Z,217.00
2018-01-01T00:15:42.698Z,223.80
2018-01-01T00:18:09.441Z,224.55
2018-01-01T00:20:36.194Z,207.23
2018-01-01T00:23:02.936Z,221.98
2018-01-01T00:25:29.668Z,225.50
2018-01-01T00:27:56.453Z,228.20
2018-01-01T00:30:23.202Z,227.55
2018-01-01T00:32:49.942Z,209.37
2018-01-01T00:35:16.707Z,215.73
2018-01-01T00:37:43.450Z,212.00
2018-01-01T00:40:10.213Z,228.52
2018-01-01T00:42:37.002Z,215.10
2018-01-01T00:45:03.734Z,204.87
2018-01-01T00:47:30.495Z,194.55
2018-01-01T00:49:57.286Z,210.80
2018-01-01T00:52:24.033Z,217.15
2018-01-01T00:54:50.797Z,218.20
2018-01-01T00:57:17.558Z,230.80
2018-01-01T00:59:44.299Z,213.27
2018-01-01T01:02:11.050Z,196.37
2018-01-01T01:04:37.835Z,179.18
2018-01-01T01:07:04.585Z,202.50
2018-01-01T01:09:31.319Z,167.25
2018-01-01T01:11:58.108Z,167.75
2018-01-01T01:14:24.849Z,182.93
2018-01-01T01:16:51.593Z,186.55
2018-01-01T01:19:18.337Z,169.43
2018-01-01T01:21:45.090Z,188.62
2018-01-01T01:24:11.824Z,197.35
2018-01-01T01:26:38.588Z,179.85
2018-01-01T01:29:05.329Z,190.12
2018-01-01T01:31:32.070Z,186.82
2018-01-01T01:33:58.823Z,190.30
2018-01-01T01:36:25.561Z,195.95
2018-01-01T01:38:52.330Z,192.57
2018-01-01T01:41:19.211Z,197.73
2018-01-01T01:43:45.932Z,199.57
2018-01-01T01:46:12.692Z,198.40
2018-01-01T01:48:45.483Z,179.85
2018-01-01T01:51:12.227Z,191.77
2018-01-01T01:53:38.958Z,169.33
2018-01-01T01:56:05.703Z,169.90
2018-01-01T01:58:32.477Z,153.07
2018-01-01T02:00:59.206Z,146.07
2018-01-01T02:03:25.940Z,149.23
2018-01-01T02:05:52.695Z,148.50
2018-01-01T02:08:19.431Z,161.97
2018-01-01T02:10:46.175Z,140.03
2018-01-01T02:13:12.918Z,141.95
2018-01-01T02:15:39.655Z,148.90
2018-01-01T02:18:06.393Z,147.73
2018-01-01T02:20:33.177Z,150.82
2018-01-01T02:22:59.914Z,144.80
2018-01-01T02:25:26.667Z,147.05
2018-01-01T02:27:53.401Z,151.68
2018-01-01T02:30:20.161Z,165.45
2018-01-01T02:32:50.820Z,167.67
2018-01-01T02:35:17.555Z,148.60
2018-01-01T02:37:44.323Z,152.25
2018-01-01T02:40:11.075Z,143.98
2018-01-01T02:42:37.830Z,153.80
2018-01-01T02:45:04.548Z,145.87
2018-01-01T02:47:31.283Z,146.17
2018-01-01T02:49:58.026Z,141.83
2018-01-01T02:52:24.770Z,145.12
2018-01-01T02:54:51.545Z,125.55
2018-01-01T02:57:18.313Z,136.40
2018-01-01T02:59:45.050Z,133.17
2018-01-01T03:02:11.821Z,127.05
2018-01-01T03:04:38.579Z,124.30
2018-01-01T03:07:05.302Z,132.70
2018-01-01T03:09:32.049Z,140.77
2018-01-01T03:11:58.774Z,146.13
2018-01-01T03:14:25.519Z,138.90
2018-01-01T03:16:52.269Z,141.73
2018-01-01T03:19:19.014Z,136.73
2018-01-01T03:21:45.755Z,129.48
2018-01-01T03:24:12.595Z,136.88
2018-01-01T03:26:39.331Z,135.60
2018-01-01T03:29:06.081Z,140.10
2018-01-01T03:31:32.817Z,138.57
2018-01-01T03:33:59.567Z,155.65
2018-01-01T03:36:26.294Z,141.90
2018-01-01T03:38:53.046Z,142.87
2018-01-01T03:41:19.812Z,148.87
2018-01-01T03:43:46.557Z,137.07
2018-01-01T03:46:13.322Z,114.82
2018-01-01T03:48:40.050Z,95.65
2018-01-01T03:51:06.805Z,95.75
2018-01-01T03:53:33.557Z,94.65
2018-01-01T03:56:00.281Z,104.82
2018-01-01T03:58:27.015Z,60.92
2018-01-01T04:00:53.878Z,68.37
2018-01-01T04:03:20.613Z,87.40
2018-01-01T04:05:47.345Z,117.00
2018-01-01T04:08:14.078Z,119.60
2018-01-01T04:10:40.826Z,119.65
2018-01-01T04:13:07.564Z,121.30
2018-01-01T04:15:34.310Z,112.62
2018-01-01T04:18:01.039Z,113.83
2018-01-01T04:20:27.769Z,118.60
2018-01-01T04:22:54.520Z,101.60
2018-01-01T04:25:21.229Z,81.90
2018-01-01T04:27:47.942Z,76.90
2018-01-01T04:30:14.678Z,73.77
2018-01-01T04:32:41.410Z,69.83
2018-01-01T04:35:08.150Z,70.78
2018-01-01T04:37:35.765Z,61.05
2018-01-01T04:40:02.524Z,57.90
2018-01-01T04:42:29.242Z,60.45
2018-01-01T04:44:55.965Z,50.87
2018-01-01T04:47:22.675Z,56.95
2018-01-01T04:49:49.420Z,45.12
2018-01-01T04:52:16.147Z,49.15
2018-01-01T04:54:42.870Z,42.75
2018-01-01T04:57:09.600Z,41.03
2018-01-01T04:59:36.375Z,37.60
2018-01-01T05:02:03.090Z,31.35
2018-01-01T05:04:29.821Z,37.35
2018-01-01T05:06:56.601Z,44.92
2018-01-01T05:09:23.313Z,44.83
2018-01-01T05:11:50.053Z,45.47
2018-01-01T05:14:16.781Z,41.07
2018-01-01T05:16:44.558Z,44.13
2018-01-01T05:19:11.285Z,39.47
2018-01-01T05:21:38.062Z,20.90
2018-01-01T05:24:04.777Z,24.37
2018-01-01T05:26:31.505Z,27.27
2018-01-01T05:28:58.232Z,28.60
2018-01-01T05:31:24.955Z,17.90
2018-01-01T05:33:51.664Z,13.97
2018-01-01T05:36:18.378Z,15.70
2018-01-01T05:38:45.097Z,12.87
2018-01-01T05:41:11.811Z,15.50
2018-01-01T05:43:38.529Z,21.60
2018-01-01T05:46:05.232Z,13.50
2018-01-01T05:48:31.965Z,13.20
2018-01-01T05:50:58.696Z,15.13
2018-01-01T05:53:25.404Z,12.73
2018-01-01T05:55:52.134Z,11.82
2018-01-01T05:58:18.865Z,11.53
2018-01-01T06:00:45.572Z,18.40
2018-01-01T06:03:12.281Z,16.43
2018-01-01T06:05:39.016Z,17.07
2018-01-01T06:08:05.735Z,15.20
2018-01-01T06:10:32.461Z,23.80
2018-01-01T06:12:59.188Z,23.43
2018-01-01T06:15:25.905Z,19.07
2018-01-01T06:17:52.617Z,23.77
2018-01-01T06:20:19.363Z,22.10
2018-01-01T06:22:46.085Z,24.87
2018-01-01T06:25:12.801Z,26.10
2018-01-01T06:27:39.529Z,22.30
2018-01-01T06:30:06.245Z,25.70
2018-01-01T06:32:32.970Z,27.47
2018-01-01T06:34:59.709Z,24.47
2018-01-01T06:37:26.425Z,27.47
2018-01-01T06:39:53.153Z,28.20
2018-01-01T06:42:19.899Z,32.20
2018-01-01T06:44:46.712Z,28.60
2018-01-01T06:47:13.445Z,32.70
2018-01-01T06:49:40.181Z,28.63
2018-01-01T06:52:06.890Z,28.57
2018-01-01T06:54:33.602Z,30.93
2018-01-01T06:57:00.352Z,25.23
2018-01-01T06:59:27.053Z,27.13
2018-01-01T07:01:53.766Z,25.37
2018-01-01T07:04:20.492Z,33.60
2018-01-01T07:06:47.233Z,29.30
2018-01-01T07:09:13.965Z,32.47
2018-01-01T07:11:40.704Z,30.67
2018-01-01T07:14:07.418Z,30.20
2018-01-01T07:16:34.132Z,25.93
2018-01-01T07:19:00.864Z,29.40
2018-01-01T07:21:27.583Z,31.63
2018-01-01T07:23:54.323Z,26.37
2018-01-01T07:26:21.038Z,30.87
2018-01-01T07:28:47.762Z,29.50
2018-01-01T07:31:14.473Z,34.43
2018-01-01T07:33:41.249Z,33.30
2018-01-01T07:36:07.955Z,27.90
2018-01-01T07:38:34.670Z,28.30
2018-01-01T07:41:01.403Z,35.43
2018-01-01T07:43:28.130Z,27.43
2018-01-01T07:45:54.878Z,30.80
2018-01-01T07:48:21.625Z,27.97
2018-01-01T07:50:48.340Z,35.20
2018-01-01T07:53:15.067Z,32.77
2018-01-01T07:55:42.080Z,26.33
2018-01-01T07:58:08.820Z,34.70
2018-01-01T08:00:35.550Z,33.80
2018-01-01T08:03:02.292Z,31.50
2018-01-01T08:05:29.022Z,31.17
2018-01-01T08:07:55.734Z,34.67
2018-01-01T08:10:22.470Z,32.43
2018-01-01T08:12:49.189Z,34.00
2018-01-01T08:15:15.906Z,29.63
2018-01-01T08:17:42.664Z,28.03
2018-01-01T08:20:09.394Z,31.53
2018-01-01T08:22:36.113Z,28.00
2018-01-01T08:25:02.874Z,34.70
2018-01-01T08:27:29.597Z,25.23
2018-01-01T08:29:56.314Z,28.37
2018-01-01T08:32:23.057Z,27.80
2018-01-01T08:34:49.776Z,30.70
2018-01-01T08:37:16.490Z,26.80
2018-01-01T08:39:43.210Z,29.33
2018-01-01T08:42:09.920Z,31.17
2018-01-01T08:44:36.642Z,27.70
2018-01-01T08:47:03.417Z,29.53
2018-01-01T08:49:30.129Z,26.53
2018-01-01T08:51:56.845Z,30.23
2018-01-01T08:54:23.589Z,26.77
2018-01-01T08:56:50.301Z,24.33
2018-01-01T08:59:17.003Z,27.33
2018-01-01T09:01:43.718Z,24.63
2018-01-01T09:04:10.454Z,30.33
2018-01-01T09:06:37.191Z,26.73
2018-01-01T09:09:03.969Z,29.07
2018-01-01T09:11:30.701Z,25.90
2018-01-01T09:13:57.448Z,23.90
2018-01-01T09:16:24.247Z,20.43
2018-01-01T09:18:50.973Z,20.40
2018-01-01T09:21:17.698Z,22.20
2018-01-01T09:23:44.427Z,22.90
2018-01-01T09:26:11.320Z,23.77
2018-01-01T09:28:38.040Z,22.90
2018-01-01T09:31:04.769Z,24.90
2018-01-01T09:33:31.502Z,25.50
2018-01-01T09:35:58.242Z,20.80
2018-01-01T09:38:24.985Z,26.03
2018-01-01T09:40:51.705Z,20.10
2018-01-01T09:43:18.430Z,16.50
2018-01-01T09:45:45.177Z,9.40
2018-01-01T09:48:11.885Z,10.77
2018-01-01T09:50:38.598Z,17.10
2018-01-01T09:53:05.330Z,25.17
2018-01-01T09:55:32.057Z,27.17
2018-01-01T09:57:58.773Z,26.50
2018-01-01T10:00:25.499Z,26.20
2018-01-01T10:02:52.248Z,25.93
2018-01-01T10:05:18.966Z,28.93
2018-01-01T10:07:45.717Z,24.57
2018-01-01T10:10:12.424Z,31.17
2018-01-01T10:12:39.139Z,28.67
2018-01-01T10:15:05.868Z,24.73
2018-01-01T10:17:32.606Z,27.27
2018-01-01T10:19:59.321Z,28.37
2018-01-01T10:22:26.054Z,32.87
2018-01-01T10:24:52.764Z,26.83
2018-01-01T10:27:19.496Z,30.00
2018-01-01T10:29:46.225Z,30.13
2018-01-01T10:32:13.015Z,28.50
2018-01-01T10:34:39.745Z,26.27
2018-01-01T10:37:06.474Z,34.33
2018-01-01T10:39:33.233Z,21.63
2018-01-01T10:41:59.954Z,21.40
2018-01-01T10:44:26.713Z,24.23
2018-01-01T10:46:53.431Z,18.90
2018-01-01T10:49:20.145Z,18.23
2018-01-01T10:51:46.874Z,4.73
2018-01-01T10:54:13.591Z,3.60
2018-01-01T10:56:40.297Z,2.00
2018-01-01T10:59:07.047Z,1.87
2018-01-01T11:01:33.790Z,3.33
2018-01-01T11:04:00.535Z,2.40
2018-01-01T11:06:27.268Z,1.73
2018-01-01T11:08:53.979Z,1.77
2018-01-01T11:11:20.701Z,1.50
2018-01-01T11:13:47.429Z,2.80
2018-01-01T11:16:14.150Z,2.20
2018-01-01T11:18:40.879Z,3.27
2018-01-01T11:21:07.587Z,2.20
2018-01-01T11:23:34.314Z,3.07
2018-01-01T11:26:01.028Z,2.97
2018-01-01T11:28:27.750Z,2.13
2018-01-01T11:30:54.475Z,2.10
2018-01-01T11:33:21.186Z,1.73
2018-01-01T11:35:47.895Z,2.80
2018-01-01T11:38:14.626Z,1.63
2018-01-01T11:40:41.336Z,1.60
2018-01-01T11:43:08.108Z,1.73
2018-01-01T11:45:34.819Z,2.00
2018-01-01T11:48:01.570Z,2.40
2018-01-01T11:50:28.303Z,2.47
2018-01-01T11:52:55.008Z,1.50
2018-01-01T11:55:21.724Z,6.73
2018-01-01T11:57:48.459Z,2.27
2018-01-01T12:00:15.191Z,1.90
2018-01-01T12:02:41.906Z,1.50
2018-01-01T12:05:08.637Z,1.83
2018-01-01T12:07:35.379Z,2.43
2018-01-01T12:10:02.134Z,2.10
2018-01-01T12:12:28.859Z,2.63
2018-01-01T12:14:55.583Z,2.90
2018-01-01T12:17:22.298Z,3.03
2018-01-01T12:19:49.039Z,4.03
2018-01-01T12:22:15.765Z,4.83
2018-01-01T12:24:42.477Z,2.00
2018-01-01T12:27:09.206Z,3.20
2018-01-01T12:29:35.935Z,3.43
2018-01-01T12:32:02.658Z,2.27
2018-01-01T12:34:29.405Z,2.80
2018-01-01T12:36:56.118Z,4.30
2018-01-01T12:39:22.820Z,2.60
2018-01-01T12:41:49.555Z,2.37
2018-01-01T12:44:16.273Z,2.60
2018-01-01T12:46:43.018Z,3.10
2018-01-01T12:49:09.743Z,3.03
2018-01-01T12:51:36.459Z,3.03
2018-01-01T12:54:03.182Z,2.00
2018-01-01T12:56:29.966Z,1.70
2018-01-01T12:58:56.672Z,1.97
2018-01-01T13:01:23.382Z,2.40
2018-01-01T13:03:50.125Z,2.27
2018-01-01T13:06:16.877Z,2.60
2018-01-01T13:08:43.603Z,2.27
2018-01-01T13:11:10.333Z,1.77
2018-01-01T13:13:37.074Z,2.80
2018-01-01T13:16:03.783Z,2.27
2018-01-01T13:18:30.502Z,1.33
2018-01-01T13:20:57.246Z,1.80
2018-01-01T13:23:23.963Z,1.27
2018-01-01T13:25:50.690Z,1.23
2018-01-01T13:28:17.428Z,1.77
2018-01-01T13:30:44.155Z,1.53
2018-01-01T13:33:10.869Z,2.23
2018-01-01T13:35:37.590Z,2.63
2018-01-01T13:38:04.308Z,3.37
2018-01-01T13:40:31.019Z,1.20
2018-01-01T13:42:58.934Z,1.13
2018-01-01T13:45:25.649Z,3.30
2018-01-01T13:47:52.395Z,5.17
2018-01-01T13:50:19.106Z,3.10
2018-01-01T13:52:45.821Z,2.10
2018-01-01T13:55:12.541Z,2.00
2018-01-01T13:57:39.261Z,1.73
2018-01-01T14:00:05.971Z,1.97
2018-01-01T14:02:32.706Z,1.20
2018-01-01T14:04:59.437Z,2.50
2018-01-01T14:07:26.154Z,2.57
2018-01-01T14:09:52.887Z,1.27
2018-01-01T14:12:19.606Z,1.63
2018-01-01T14:14:46.327Z,1.80
2018-01-01T14:17:13.255Z,1.40
2018-01-01T14:19:39.985Z,1.60
2018-01-01T14:22:06.685Z,2.07
2018-01-01T14:24:33.408Z,1.80
2018-01-01T14:27:00.112Z,2.00
2018-01-01T14:29:26.834Z,1.30
2018-01-01T14:31:53.577Z,1.37
2018-01-01T14:34:20.345Z,5.00
2018-01-01T14:36:47.057Z,9.10
2018-01-01T14:39:13.814Z,11.63
2018-01-01T14:41:40.537Z,11.13
2018-01-01T14:44:07.243Z,12.43
2018-01-01T14:46:33.973Z,12.60
2018-01-01T14:49:00.697Z,13.90
2018-01-01T14:51:27.421Z,14.40
2018-01-01T14:53:54.172Z,16.40
2018-01-01T14:56:20.892Z,15.40
2018-01-01T14:58:47.624Z,14.87
2018-01-01T15:01:14.379Z,14.93
2018-01-01T15:03:41.128Z,16.50
2018-01-01T15:06:07.841Z,21.33
2018-01-01T15:08:34.579Z,15.60
2018-01-01T15:11:01.329Z,17.10
2018-01-01T15:13:28.071Z,14.23
2018-01-01T15:15:54.837Z,14.13
2018-01-01T15:18:21.558Z,14.73
2018-01-01T15:20:48.294Z,10.93
2018-01-01T15:23:15.036Z,12.23
2018-01-01T15:25:41.901Z,9.87
2018-01-01T15:28:08.611Z,10.43
2018-01-01T15:30:35.347Z,13.32
2018-01-01T15:33:02.074Z,13.37
2018-01-01T15:35:28.803Z,9.80
2018-01-01T15:37:55.557Z,11.93
2018-01-01T15:40:22.299Z,13.00
2018-01-01T15:42:49.050Z,11.13
2018-01-01T15:45:15.789Z,12.60
2018-01-01T15:47:42.537Z,10.87
2018-01-01T15:50:09.244Z,12.00
2018-01-01T15:52:36.007Z,11.80
2018-01-01T15:55:02.753Z,12.53
2018-01-01T15:57:29.530Z,10.33
2018-01-01T15:59:56.269Z,16.50
2018-01-01T16:02:22.985Z,10.80
2018-01-01T16:04:49.704Z,14.13
2018-01-01T16:07:16.436Z,11.30
2018-01-01T16:09:43.159Z,12.30
2018-01-01T16:12:09.868Z,14.63
2018-01-01T16:14:36.620Z,15.90
2018-01-01T16:17:03.365Z,17.17
2018-01-01T16:19:30.099Z,17.67
2018-01-01T16:21:56.841Z,16.97
2018-01-01T16:24:23.582Z,16.10
2018-01-01T16:26:50.322Z,17.07
2018-01-01T16:29:17.066Z,21.23
2018-01-01T16:31:43.798Z,20.60
2018-01-01T16:34:10.511Z,21.60
2018-01-01T16:36:37.237Z,26.23
2018-01-01T16:39:04.002Z,25.43
2018-01-01T16:41:30.716Z,28.00
2018-01-01T16:43:57.454Z,24.43
2018-01-01T16:46:24.217Z,23.93
2018-01-01T16:48:50.940Z,25.10
2018-01-01T16:51:17.720Z,26.17
2018-01-01T16:53:44.445Z,22.90
2018-01-01T16:56:11.185Z,24.13
2018-01-01T16:58:37.952Z,27.43
2018-01-01T17:01:04.678Z,25.80
2018-01-01T17:03:31.404Z,23.07
2018-01-01T17:05:58.163Z,18.40
2018-01-01T17:08:24.885Z,19.23
2018-01-01T17:10:51.598Z,21.10
2018-01-01T17:13:18.327Z,23.17
2018-01-01T17:15:45.063Z,18.17
2018-01-01T17:18:11.781Z,19.50
2018-01-01T17:20:38.513Z,20.13
2018-01-01T17:23:05.235Z,22.83
2018-01-01T17:25:31.978Z,22.40
2018-01-01T17:27:58.706Z,18.83
2018-01-01T17:30:25.468Z,20.30
2018-01-01T17:32:52.210Z,17.00
2018-01-01T17:35:19.013Z,16.43
2018-01-01T17:37:45.758Z,16.43
2018-01-01T17:40:12.525Z,16.33
2018-01-01T17:42:39.299Z,19.30
2018-01-01T17:45:06.047Z,19.07
2018-01-01T17:47:32.810Z,15.33
2018-01-01T17:49:59.586Z,20.57
2018-01-01T17:52:26.358Z,16.70
2018-01-01T17:54:53.097Z,20.23
2018-01-01T17:57:19.851Z,20.40
2018-01-01T17:59:46.608Z,16.10
2018-01-01T18:02:13.384Z,18.57
2018-01-01T18:04:40.173Z,14.77
2018-01-01T18:07:06.916Z,15.97
2018-01-01T18:09:33.679Z,16.60
2018-01-01T18:12:00.457Z,16.57
2018-01-01T18:14:27.192Z,18.93
2018-01-01T18:16:53.995Z,16.03
2018-01-01T18:19:20.747Z,13.83
2018-01-01T18:21:47.484Z,18.30
2018-01-01T18:24:14.248Z,16.00
2018-01-01T18:26:42.023Z,14.47
2018-01-01T18:29:08.828Z,15.37
2018-01-01T18:31:35.572Z,13.83
2018-01-01T18:34:02.369Z,16.03
2018-01-01T18:36:29.130Z,17.37
2018-01-01T18:38:55.852Z,13.43
2018-01-01T18:41:22.625Z,11.73
2018-01-01T18:43:49.437Z,21.50
2018-01-01T18:46:16.177Z,13.37
2018-01-01T18:48:42.938Z,11.90
2018-01-01T18:51:09.786Z,13.57
2018-01-01T18:53:36.603Z,10.37
2018-01-01T18:56:03.356Z,10.77
2018-01-01T18:58:30.105Z,12.57
2018-01-01T19:00:56.824Z,9.87
2018-01-01T19:03:23.553Z,11.60
2018-01-01T19:05:50.306Z,12.73
2018-01-01T19:08:17.030Z,12.23
2018-01-01T19:10:43.796Z,12.53
2018-01-01T19:13:10.569Z,11.77
2018-01-01T19:15:37.312Z,11.70
2018-01-01T19:18:04.658Z,12.60
2018-01-01T19:20:32.624Z,10.57
2018-01-01T19:22:59.389Z,12.10
2018-01-01T19:25:26.172Z,10.53
2018-01-01T19:27:52.909Z,10.67
2018-01-01T19:30:19.659Z,11.77
2018-01-01T19:32:46.393Z,9.33
2018-01-01T19:35:13.128Z,12.80
2018-01-01T19:37:39.933Z,14.50
2018-01-01T19:40:06.719Z,11.40
2018-01-01T19:42:33.529Z,14.83
2018-01-01T19:45:00.306Z,13.73
2018-01-01T19:47:27.065Z,12.27
2018-01-01T19:49:53.824Z,12.03
2018-01-01T19:52:20.548Z,12.90
2018-01-01T19:54:47.307Z,11.30
2018-01-01T19:57:14.052Z,13.40
2018-01-01T19:59:40.859Z,9.87
2018-01-01T20:02:07.727Z,11.00
2018-01-01T20:04:34.673Z,12.77
2018-01-01T20:07:01.437Z,6.90
2018-01-01T20:09:28.339Z,7.77
2018-01-01T20:11:55.186Z,8.57
2018-01-01T20:14:22.613Z,10.50
2018-01-01T20:16:49.373Z,8.17
2018-01-01T20:19:16.173Z,7.53
2018-01-01T20:21:42.914Z,7.03
2018-01-01T20:24:09.679Z,7.50
2018-01-01T20:26:36.448Z,9.10
2018-01-01T20:29:03.159Z,6.77
2018-01-01T20:31:29.974Z,9.23
2018-01-01T20:33:56.702Z,6.60
2018-01-01T20:36:23.436Z,7.87
2018-01-01T20:38:50.186Z,7.83
2018-01-01T20:41:16.918Z,9.20
2018-01-01T20:43:43.685Z,9.90
2018-01-01T20:46:10.429Z,10.73
2018-01-01T20:48:37.183Z,10.27
2018-01-01T20:51:03.931Z,9.60
2018-01-01T20:53:30.705Z,8.77
2018-01-01T20:55:57.848Z,10.77
2018-01-01T20:58:24.576Z,10.10
2018-01-01T21:00:51.318Z,8.90
2018-01-01T21:03:18.070Z,8.93
2018-01-01T21:05:44.827Z,13.80
2018-01-01T21:08:11.679Z,15.57
2018-01-01T21:10:38.420Z,12.63
2018-01-01T21:13:05.154Z,3.10
2018-01-01T21:15:31.932Z,7.07
2018-01-01T21:17:58.709Z,4.53
2018-01-01T21:20:25.432Z,4.43
2018-01-01T21:22:52.196Z,3.70
2018-01-01T21:25:18.953Z,4.97
2018-01-01T21:27:45.720Z,4.37
2018-01-01T21:30:12.483Z,6.40
2018-01-01T21:32:39.211Z,4.00
2018-01-01T21:35:05.960Z,4.00
2018-01-01T21:37:32.713Z,3.83
2018-01-01T21:39:59.448Z,4.27
2018-01-01T21:42:26.192Z,4.40
2018-01-01T21:44:52.929Z,5.27
2018-01-01T21:47:19.661Z,9.33
2018-01-01T21:49:46.403Z,6.23
2018-01-01T21:52:13.159Z,4.03
2018-01-01T21:54:39.897Z,6.27
2018-01-01T21:57:06.640Z,6.57
2018-01-01T21:59:33.382Z,5.70
2018-01-01T22:02:00.124Z,7.20
2018-01-01T22:04:26.856Z,6.67
2018-01-01T22:06:53.590Z,5.17
2018-01-01T22:09:20.333Z,6.27
2018-01-01T22:11:47.054Z,5.87
2018-01-01T22:14:13.812Z,5.13
2018-01-01T22:16:40.541Z,5.00
2018-01-01T22:19:07.295Z,4.50
2018-01-01T22:21:34.039Z,4.97
2018-01-01T22:24:00.789Z,5.90
2018-01-01T22:26:27.514Z,4.50
2018-01-01T22:28:54.254Z,4.17
2018-01-01T22:31:20.983Z,4.17
2018-01-01T22:33:47.712Z,4.97
2018-01-01T22:36:14.437Z,4.73
2018-01-01T22:38:41.150Z,6.53
2018-01-01T22:41:07.880Z,4.63
2018-01-01T22:43:34.642Z,4.33
2018-01-01T22:46:01.368Z,5.03
2018-01-01T22:48:28.101Z,4.70
2018-01-01T22:50:54.834Z,6.30
2018-01-01T22:53:21.563Z,6.20
2018-01-01T22:55:48.292Z,6.30
2018-01-01T22:58:15.052Z,3.83
2018-01-01T23:00:41.781Z,5.37
2018-01-01T23:03:08.488Z,5.17
2018-01-01T23:05:35.226Z,5.10
2018-01-01T23:08:01.952Z,4.13
2018-01-01T23:10:28.665Z,5.20
2018-01-01T23:12:55.396Z,5.83
2018-01-01T23:15:22.126Z,5.00
2018-01-01T23:17:48.846Z,5.03
2018-01-01T23:20:15.600Z,4.87
2018-01-01T23:22:42.310Z,7.40
2018-01-01T23:25:09.060Z,5.40
2018-01-01T23:27:35.795Z,7.03
2018-01-01T23:30:02.528Z,7.03
2018-01-01T23:32:29.243Z,4.67
2018-01-01T23:34:55.987Z,6.30
2018-01-01T23:37:22.699Z,4.97
2018-01-01T23:39:49.418Z,3.97
2018-01-01T23:42:17.138Z,4.60
2018-01-01T23:44:43.854Z,4.60
2018-01-01T23:47:10.581Z,4.40
2018-01-01T23:49:37.325Z,7.00
2018-01-01T23:52:04.034Z,4.30
2018-01-01T23:54:30.757Z,6.10
2018-01-01T23:56:57.485Z,5.60
2018-01-01T23:59:24.199Z,5.17
